sensor_id;sensor_type;location;lat;lon;timestamp;P1;durP1;ratioP1;P2;durP2;ratioP2
26080;SDS011;13991;51.174;4.438;2022-10-16T08:35:40;7.67;;;1.20;;
26080;SDS011;13991;51.174;4.438;2022-10-16T08:38:06;10.53;;;1.50;;
26080;SDS011;13991;51.174;4.438;2022-10-16T08:40:33;4.73;;;1.20;;
26080;SDS011;13991;51.174;4.438;2022-10-16T08:48:50;11.03;;;1.30;;
26080;SDS011;13991;51.174;4.438;2022-10-16T08:51:25;12.20;;;1.30;;
26080;SDS011;13991;51.174;4.438;2022-10-16T09:07:00;8.13;;;1.33;;
26080;SDS011;13991;51.174;4.438;2022-10-16T09:48:37;14.83;;;1.77;;
26080;SDS011;13991;51.174;4.438;2022-10-16T09:51:04;8.27;;;1.30;;
26080;SDS011;13991;51.174;4.438;2022-10-16T09:56:31;14.27;;;1.13;;
26080;SDS011;13991;51.174;4.438;2022-10-16T09:59:01;15.57;;;1.60;;
26080;SDS011;13991;51.174;4.438;2022-10-16T10:01:38;7.60;;;0.80;;
26080;SDS011;13991;51.174;4.438;2022-10-16T10:04:09;8.80;;;1.07;;
26080;SDS011;13991;51.174;4.438;2022-10-16T10:06:45;8.93;;;1.17;;
26080;SDS011;13991;51.174;4.438;2022-10-16T10:09:15;9.57;;;1.63;;
26080;SDS011;13991;51.174;4.438;2022-10-16T10:11:50;7.63;;;1.30;;
26080;SDS011;13991;51.174;4.438;2022-10-16T10:16:51;6.37;;;1.27;;
26080;SDS011;13991;51.174;4.438;2022-10-16T10:19:18;15.17;;;1.30;;
26080;SDS011;13991;51.174;4.438;2022-10-16T10:21:48;12.70;;;1.67;;
26080;SDS011;13991;51.174;4.438;2022-10-16T10:24:16;19.97;;;1.93;;
26080;SDS011;13991;51.174;4.438;2022-10-16T10:27:04;9.63;;;1.33;;
26080;SDS011;13991;51.174;4.438;2022-10-16T10:32:15;20.17;;;1.63;;
26080;SDS011;13991;51.174;4.438;2022-10-16T10:34:59;12.87;;;1.10;;
26080;SDS011;13991;51.174;4.438;2022-10-16T10:37:41;15.00;;;1.70;;
26080;SDS011;13991;51.174;4.438;2022-10-16T10:53:31;7.93;;;1.00;;
26080;SDS011;13991;51.174;4.438;2022-10-16T10:58:35;14.30;;;1.37;;
26080;SDS011;13991;51.174;4.438;2022-10-16T11:01:46;10.80;;;1.53;;
26080;SDS011;13991;51.174;4.438;2022-10-16T11:09:48;9.53;;;0.90;;
26080;SDS011;13991;51.174;4.438;2022-10-16T11:12:19;15.63;;;1.43;;
26080;SDS011;13991;51.174;4.438;2022-10-16T11:17:34;13.17;;;1.40;;
26080;SDS011;13991;51.174;4.438;2022-10-16T11:20:22;12.03;;;1.30;;
26080;SDS011;13991;51.174;4.438;2022-10-16T11:22:52;16.03;;;1.20;;
26080;SDS011;13991;51.174;4.438;2022-10-16T11:25:23;24.37;;;1.93;;
26080;SDS011;13991;51.174;4.438;2022-10-16T11:28:14;14.27;;;1.10;;
26080;SDS011;13991;51.174;4.438;2022-10-16T11:30:52;13.20;;;1.40;;
26080;SDS011;13991;51.174;4.438;2022-10-16T11:36:34;9.77;;;1.30;;
26080;SDS011;13991;51.174;4.438;2022-10-16T11:39:09;8.67;;;1.50;;
26080;SDS011;13991;51.174;4.438;2022-10-16T11:50:13;6.70;;;1.37;;
26080;SDS011;13991;51.174;4.438;2022-10-16T11:55:51;11.53;;;1.07;;
26080;SDS011;13991;51.174;4.438;2022-10-16T12:06:29;9.67;;;1.20;;
26080;SDS011;13991;51.174;4.438;2022-10-16T12:09:00;9.43;;;0.97;;
26080;SDS011;13991;51.174;4.438;2022-10-16T12:11:34;5.37;;;0.73;;
26080;SDS011;13991;51.174;4.438;2022-10-16T12:16:38;8.37;;;0.80;;
26080;SDS011;13991;51.174;4.438;2022-10-16T12:19:15;12.10;;;1.47;;
26080;SDS011;13991;51.174;4.438;2022-10-16T12:21:43;3.87;;;1.03;;
26080;SDS011;13991;51.174;4.438;2022-10-16T12:24:20;5.87;;;1.10;;
26080;SDS011;13991;51.174;4.438;2022-10-16T12:26:56;8.73;;;0.93;;
26080;SDS011;13991;51.174;4.438;2022-10-16T12:29:38;10.23;;;1.63;;
26080;SDS011;13991;51.174;4.438;2022-10-16T12:32:06;17.27;;;1.37;;
26080;SDS011;13991;51.174;4.438;2022-10-16T12:34:50;11.23;;;0.90;;
26080;SDS011;13991;51.174;4.438;2022-10-16T12:37:26;11.70;;;0.90;;
26080;SDS011;13991;51.174;4.438;2022-10-16T12:39:56;8.40;;;1.40;;
26080;SDS011;13991;51.174;4.438;2022-10-16T12:44:53;9.30;;;0.97;;
26080;SDS011;13991;51.174;4.438;2022-10-16T12:49:57;8.63;;;1.07;;
26080;SDS011;13991;51.174;4.438;2022-10-16T12:52:41;7.57;;;0.90;;
26080;SDS011;13991;51.174;4.438;2022-10-16T12:55:13;11.23;;;1.07;;
26080;SDS011;13991;51.174;4.438;2022-10-16T13:04:04;10.87;;;1.10;;
26080;SDS011;13991;51.174;4.438;2022-10-16T13:09:42;8.80;;;1.10;;
26080;SDS011;13991;51.174;4.438;2022-10-16T13:17:50;16.07;;;1.30;;
26080;SDS011;13991;51.174;4.438;2022-10-16T13:20:34;11.77;;;0.80;;
26080;SDS011;13991;51.174;4.438;2022-10-16T13:23:13;8.03;;;0.80;;
26080;SDS011;13991;51.174;4.438;2022-10-16T13:28:30;7.10;;;0.77;;
26080;SDS011;13991;51.174;4.438;2022-10-16T13:30:59;8.80;;;0.83;;
26080;SDS011;13991;51.174;4.438;2022-10-16T13:36:01;3.20;;;0.50;;
26080;SDS011;13991;51.174;4.438;2022-10-16T13:38:34;4.63;;;0.70;;
26080;SDS011;13991;51.174;4.438;2022-10-16T13:41:01;5.37;;;0.70;;
26080;SDS011;13991;51.174;4.438;2022-10-16T13:43:31;3.80;;;0.77;;
26080;SDS011;13991;51.174;4.438;2022-10-16T13:46:03;7.07;;;0.87;;
26080;SDS011;13991;51.174;4.438;2022-10-16T13:48:37;11.43;;;0.57;;
26080;SDS011;13991;51.174;4.438;2022-10-16T13:51:11;9.33;;;0.90;;
26080;SDS011;13991;51.174;4.438;2022-10-16T13:53:39;6.73;;;0.50;;
26080;SDS011;13991;51.174;4.438;2022-10-16T13:56:07;5.57;;;0.80;;
26080;SDS011;13991;51.174;4.438;2022-10-16T13:58:41;6.03;;;1.20;;
26080;SDS011;13991;51.174;4.438;2022-10-16T14:01:18;12.30;;;0.70;;
26080;SDS011;13991;51.174;4.438;2022-10-16T14:03:47;7.67;;;0.90;;
26080;SDS011;13991;51.174;4.438;2022-10-16T14:06:14;7.30;;;0.80;;
26080;SDS011;13991;51.174;4.438;2022-10-16T14:08:50;10.13;;;1.00;;
26080;SDS011;13991;51.174;4.438;2022-10-16T14:11:22;4.83;;;0.70;;
26080;SDS011;13991;51.174;4.438;2022-10-16T14:13:49;7.93;;;0.63;;
26080;SDS011;13991;51.174;4.438;2022-10-16T14:16:25;4.83;;;0.70;;
26080;SDS011;13991;51.174;4.438;2022-10-16T14:19:00;3.80;;;0.70;;
26080;SDS011;13991;51.174;4.438;2022-10-16T14:21:27;7.63;;;1.03;;
26080;SDS011;13991;51.174;4.438;2022-10-16T14:23:54;9.67;;;1.33;;
26080;SDS011;13991;51.174;4.438;2022-10-16T14:26:22;6.77;;;1.10;;
26080;SDS011;13991;51.174;4.438;2022-10-16T14:29:01;15.70;;;1.10;;
26080;SDS011;13991;51.174;4.438;2022-10-16T14:31:34;6.77;;;0.67;;
26080;SDS011;13991;51.174;4.438;2022-10-16T14:34:02;4.37;;;0.87;;
26080;SDS011;13991;51.174;4.438;2022-10-16T14:36:28;6.07;;;0.90;;
26080;SDS011;13991;51.174;4.438;2022-10-16T14:39:02;7.77;;;1.20;;
26080;SDS011;13991;51.174;4.438;2022-10-16T14:41:41;4.77;;;0.80;;
26080;SDS011;13991;51.174;4.438;2022-10-16T14:44:10;11.10;;;0.90;;
26080;SDS011;13991;51.174;4.438;2022-10-16T14:46:38;8.50;;;0.93;;
26080;SDS011;13991;51.174;4.438;2022-10-16T14:51:35;10.03;;;0.70;;
26080;SDS011;13991;51.174;4.438;2022-10-16T14:54:01;7.20;;;0.77;;
26080;SDS011;13991;51.174;4.438;2022-10-16T14:56:34;4.97;;;0.70;;
26080;SDS011;13991;51.174;4.438;2022-10-16T14:59:11;8.23;;;1.07;;
26080;SDS011;13991;51.174;4.438;2022-10-16T15:01:59;9.87;;;1.00;;
26080;SDS011;13991;51.174;4.438;2022-10-16T15:04:41;9.63;;;1.03;;
26080;SDS011;13991;51.174;4.438;2022-10-16T15:07:07;7.10;;;0.80;;
26080;SDS011;13991;51.174;4.438;2022-10-16T15:09:34;4.27;;;1.03;;
26080;SDS011;13991;51.174;4.438;2022-10-16T15:12:00;9.33;;;0.90;;
26080;SDS011;13991;51.174;4.438;2022-10-16T15:14:26;7.83;;;1.10;;
26080;SDS011;13991;51.174;4.438;2022-10-16T15:16:52;8.53;;;0.90;;
26080;SDS011;13991;51.174;4.438;2022-10-16T15:19:17;3.33;;;0.70;;
26080;SDS011;13991;51.174;4.438;2022-10-16T15:21:43;9.43;;;1.00;;
26080;SDS011;13991;51.174;4.438;2022-10-16T15:24:11;7.13;;;1.50;;
26080;SDS011;13991;51.174;4.438;2022-10-16T15:26:37;7.07;;;1.87;;
26080;SDS011;13991;51.174;4.438;2022-10-16T15:29:03;6.77;;;1.50;;
26080;SDS011;13991;51.174;4.438;2022-10-16T15:31:29;6.40;;;1.37;;
26080;SDS011;13991;51.174;4.438;2022-10-16T15:33:55;13.60;;;2.57;;
26080;SDS011;13991;51.174;4.438;2022-10-16T15:36:31;9.10;;;2.07;;
26080;SDS011;13991;51.174;4.438;2022-10-16T15:39:02;9.67;;;1.57;;
26080;SDS011;13991;51.174;4.438;2022-10-16T15:41:33;10.30;;;2.00;;
26080;SDS011;13991;51.174;4.438;2022-10-16T15:43:59;4.93;;;1.33;;
26080;SDS011;13991;51.174;4.438;2022-10-16T15:46:25;4.73;;;1.37;;
26080;SDS011;13991;51.174;4.438;2022-10-16T15:48:51;7.13;;;1.93;;
26080;SDS011;13991;51.174;4.438;2022-10-16T15:51:22;7.70;;;1.30;;
26080;SDS011;13991;51.174;4.438;2022-10-16T15:53:48;13.67;;;1.53;;
26080;SDS011;13991;51.174;4.438;2022-10-16T15:56:15;4.73;;;1.40;;
26080;SDS011;13991;51.174;4.438;2022-10-16T15:58:42;10.17;;;1.97;;
26080;SDS011;13991;51.174;4.438;2022-10-16T16:01:08;8.70;;;1.60;;
26080;SDS011;13991;51.174;4.438;2022-10-16T16:03:37;7.53;;;1.73;;
26080;SDS011;13991;51.174;4.438;2022-10-16T16:06:06;12.63;;;1.93;;
26080;SDS011;13991;51.174;4.438;2022-10-16T16:08:34;7.00;;;1.40;;
26080;SDS011;13991;51.174;4.438;2022-10-16T16:11:00;9.77;;;1.70;;
26080;SDS011;13991;51.174;4.438;2022-10-16T16:13:27;13.30;;;1.63;;
26080;SDS011;13991;51.174;4.438;2022-10-16T16:15:53;8.97;;;1.33;;
26080;SDS011;13991;51.174;4.438;2022-10-16T16:18:19;8.77;;;1.77;;
26080;SDS011;13991;51.174;4.438;2022-10-16T16:20:45;14.53;;;1.77;;
26080;SDS011;13991;51.174;4.438;2022-10-16T16:23:11;8.03;;;1.87;;
26080;SDS011;13991;51.174;4.438;2022-10-16T16:25:38;10.40;;;1.73;;
26080;SDS011;13991;51.174;4.438;2022-10-16T16:28:03;8.37;;;1.77;;
26080;SDS011;13991;51.174;4.438;2022-10-16T16:30:32;4.50;;;1.57;;
26080;SDS011;13991;51.174;4.438;2022-10-16T16:32:57;5.90;;;1.97;;
26080;SDS011;13991;51.174;4.438;2022-10-16T16:35:23;5.83;;;1.70;;
26080;SDS011;13991;51.174;4.438;2022-10-16T16:37:49;11.67;;;2.30;;
26080;SDS011;13991;51.174;4.438;2022-10-16T16:40:14;18.13;;;1.93;;
26080;SDS011;13991;51.174;4.438;2022-10-16T16:42:40;10.47;;;2.40;;
26080;SDS011;13991;51.174;4.438;2022-10-16T16:45:06;9.10;;;2.30;;
26080;SDS011;13991;51.174;4.438;2022-10-16T16:47:32;10.30;;;2.57;;
26080;SDS011;13991;51.174;4.438;2022-10-16T16:49:57;8.43;;;1.70;;
26080;SDS011;13991;51.174;4.438;2022-10-16T16:52:24;9.73;;;1.60;;
26080;SDS011;13991;51.174;4.438;2022-10-16T16:54:50;9.63;;;1.57;;
26080;SDS011;13991;51.174;4.438;2022-10-16T16:57:19;11.57;;;2.40;;
26080;SDS011;13991;51.174;4.438;2022-10-16T16:59:45;12.53;;;2.30;;
26080;SDS011;13991;51.174;4.438;2022-10-16T17:02:10;9.67;;;2.23;;
26080;SDS011;13991;51.174;4.438;2022-10-16T17:04:36;10.50;;;2.60;;
26080;SDS011;13991;51.174;4.438;2022-10-16T17:07:02;9.60;;;2.70;;
26080;SDS011;13991;51.174;4.438;2022-10-16T17:09:28;12.33;;;2.07;;
26080;SDS011;13991;51.174;4.438;2022-10-16T17:11:53;20.63;;;2.53;;
26080;SDS011;13991;51.174;4.438;2022-10-16T17:14:19;14.47;;;2.57;;
26080;SDS011;13991;51.174;4.438;2022-10-16T17:16:45;11.13;;;2.00;;
26080;SDS011;13991;51.174;4.438;2022-10-16T17:19:17;13.57;;;2.47;;
26080;SDS011;13991;51.174;4.438;2022-10-16T17:21:43;14.80;;;2.17;;
26080;SDS011;13991;51.174;4.438;2022-10-16T17:24:09;15.77;;;2.13;;
26080;SDS011;13991;51.174;4.438;2022-10-16T17:26:36;9.03;;;2.10;;
26080;SDS011;13991;51.174;4.438;2022-10-16T17:29:02;6.50;;;1.50;;
26080;SDS011;13991;51.174;4.438;2022-10-16T17:31:30;16.63;;;2.40;;
26080;SDS011;13991;51.174;4.438;2022-10-16T17:34:00;16.10;;;3.67;;
26080;SDS011;13991;51.174;4.438;2022-10-16T17:36:29;11.03;;;3.37;;
26080;SDS011;13991;51.174;4.438;2022-10-16T17:38:58;13.23;;;3.10;;
26080;SDS011;13991;51.174;4.438;2022-10-16T17:41:35;17.27;;;2.97;;
26080;SDS011;13991;51.174;4.438;2022-10-16T17:44:02;12.33;;;3.20;;
26080;SDS011;13991;51.174;4.438;2022-10-16T17:46:28;15.00;;;3.23;;
26080;SDS011;13991;51.174;4.438;2022-10-16T17:48:54;21.67;;;3.43;;
26080;SDS011;13991;51.174;4.438;2022-10-16T17:51:25;11.33;;;3.47;;
26080;SDS011;13991;51.174;4.438;2022-10-16T17:53:53;13.23;;;3.23;;
26080;SDS011;13991;51.174;4.438;2022-10-16T17:56:21;22.03;;;3.23;;
26080;SDS011;13991;51.174;4.438;2022-10-16T17:58:52;13.67;;;3.17;;
26080;SDS011;13991;51.174;4.438;2022-10-16T18:01:23;18.13;;;4.27;;
26080;SDS011;13991;51.174;4.438;2022-10-16T18:03:55;16.03;;;4.30;;
26080;SDS011;13991;51.174;4.438;2022-10-16T18:06:25;13.53;;;3.30;;
26080;SDS011;13991;51.174;4.438;2022-10-16T18:08:52;17.17;;;3.70;;
26080;SDS011;13991;51.174;4.438;2022-10-16T18:11:20;18.83;;;4.10;;
26080;SDS011;13991;51.174;4.438;2022-10-16T18:13:46;10.20;;;2.93;;
26080;SDS011;13991;51.174;4.438;2022-10-16T18:16:12;23.57;;;3.37;;
26080;SDS011;13991;51.174;4.438;2022-10-16T18:18:40;15.87;;;3.70;;
26080;SDS011;13991;51.174;4.438;2022-10-16T18:21:09;15.13;;;3.73;;
26080;SDS011;13991;51.174;4.438;2022-10-16T18:23:36;18.07;;;3.70;;
26080;SDS011;13991;51.174;4.438;2022-10-16T18:26:03;8.40;;;3.30;;
26080;SDS011;13991;51.174;4.438;2022-10-16T18:28:30;15.03;;;3.40;;
26080;SDS011;13991;51.174;4.438;2022-10-16T18:30:57;16.13;;;3.90;;
26080;SDS011;13991;51.174;4.438;2022-10-16T18:33:27;21.50;;;4.17;;
26080;SDS011;13991;51.174;4.438;2022-10-16T18:35:55;16.33;;;4.20;;
26080;SDS011;13991;51.174;4.438;2022-10-16T18:38:24;14.73;;;4.17;;
26080;SDS011;13991;51.174;4.438;2022-10-16T18:40:49;14.47;;;4.43;;
26080;SDS011;13991;51.174;4.438;2022-10-16T18:43:15;15.97;;;3.60;;
26080;SDS011;13991;51.174;4.438;2022-10-16T18:45:42;9.43;;;3.23;;
26080;SDS011;13991;51.174;4.438;2022-10-16T18:48:08;16.07;;;4.00;;
26080;SDS011;13991;51.174;4.438;2022-10-16T18:50:34;26.27;;;3.97;;
26080;SDS011;13991;51.174;4.438;2022-10-16T18:52:59;10.10;;;3.57;;
26080;SDS011;13991;51.174;4.438;2022-10-16T18:55:26;16.13;;;3.67;;
26080;SDS011;13991;51.174;4.438;2022-10-16T18:57:53;17.17;;;4.83;;
26080;SDS011;13991;51.174;4.438;2022-10-16T19:00:19;14.40;;;4.43;;
26080;SDS011;13991;51.174;4.438;2022-10-16T19:02:45;12.37;;;3.87;;
26080;SDS011;13991;51.174;4.438;2022-10-16T19:05:10;14.70;;;4.00;;
26080;SDS011;13991;51.174;4.438;2022-10-16T19:07:36;10.90;;;3.43;;
26080;SDS011;13991;51.174;4.438;2022-10-16T19:10:02;17.60;;;3.63;;
26080;SDS011;13991;51.174;4.438;2022-10-16T19:12:28;13.60;;;3.60;;
26080;SDS011;13991;51.174;4.438;2022-10-16T19:14:53;14.27;;;4.07;;
26080;SDS011;13991;51.174;4.438;2022-10-16T19:17:19;13.37;;;3.97;;
26080;SDS011;13991;51.174;4.438;2022-10-16T19:19:45;10.97;;;3.60;;
26080;SDS011;13991;51.174;4.438;2022-10-16T19:22:10;10.30;;;3.53;;
26080;SDS011;13991;51.174;4.438;2022-10-16T19:24:42;10.57;;;3.83;;
26080;SDS011;13991;51.174;4.438;2022-10-16T19:27:08;10.40;;;3.53;;
26080;SDS011;13991;51.174;4.438;2022-10-16T19:29:34;16.83;;;4.07;;
26080;SDS011;13991;51.174;4.438;2022-10-16T19:31:59;14.93;;;3.90;;
26080;SDS011;13991;51.174;4.438;2022-10-16T19:34:28;10.80;;;3.83;;
26080;SDS011;13991;51.174;4.438;2022-10-16T19:36:54;21.33;;;3.93;;
26080;SDS011;13991;51.174;4.438;2022-10-16T19:39:20;13.50;;;3.77;;
26080;SDS011;13991;51.174;4.438;2022-10-16T19:41:47;18.97;;;4.13;;
26080;SDS011;13991;51.174;4.438;2022-10-16T19:44:14;14.07;;;5.00;;
26080;SDS011;13991;51.174;4.438;2022-10-16T19:46:41;19.30;;;5.03;;
26080;SDS011;13991;51.174;4.438;2022-10-16T19:49:08;10.80;;;4.10;;
26080;SDS011;13991;51.174;4.438;2022-10-16T19:51:37;8.93;;;3.83;;
26080;SDS011;13991;51.174;4.438;2022-10-16T19:54:05;14.97;;;4.67;;
26080;SDS011;13991;51.174;4.438;2022-10-16T19:56:34;9.10;;;3.93;;
26080;SDS011;13991;51.174;4.438;2022-10-16T19:59:02;14.03;;;3.93;;
26080;SDS011;13991;51.174;4.438;2022-10-16T20:01:29;11.47;;;3.87;;
26080;SDS011;13991;51.174;4.438;2022-10-16T20:03:56;16.63;;;4.00;;
26080;SDS011;13991;51.174;4.438;2022-10-16T20:06:22;13.50;;;4.23;;
26080;SDS011;13991;51.174;4.438;2022-10-16T20:08:49;14.80;;;4.23;;
26080;SDS011;13991;51.174;4.438;2022-10-16T20:11:18;13.93;;;4.30;;
26080;SDS011;13991;51.174;4.438;2022-10-16T20:13:45;17.00;;;3.27;;
26080;SDS011;13991;51.174;4.438;2022-10-16T20:16:11;12.17;;;4.50;;
26080;SDS011;13991;51.174;4.438;2022-10-16T20:18:38;10.23;;;3.33;;
26080;SDS011;13991;51.174;4.438;2022-10-16T20:21:08;10.23;;;4.63;;
26080;SDS011;13991;51.174;4.438;2022-10-16T20:23:35;7.53;;;4.30;;
26080;SDS011;13991;51.174;4.438;2022-10-16T20:26:01;13.13;;;4.77;;
26080;SDS011;13991;51.174;4.438;2022-10-16T20:28:27;10.73;;;4.13;;
26080;SDS011;13991;51.174;4.438;2022-10-16T20:30:52;10.47;;;4.00;;
26080;SDS011;13991;51.174;4.438;2022-10-16T20:33:18;11.13;;;4.17;;
26080;SDS011;13991;51.174;4.438;2022-10-16T20:35:44;19.80;;;5.03;;
26080;SDS011;13991;51.174;4.438;2022-10-16T20:38:12;14.27;;;4.63;;
26080;SDS011;13991;51.174;4.438;2022-10-16T20:40:39;11.07;;;4.00;;
26080;SDS011;13991;51.174;4.438;2022-10-16T20:43:07;13.00;;;4.33;;
26080;SDS011;13991;51.174;4.438;2022-10-16T20:45:37;17.27;;;4.37;;
26080;SDS011;13991;51.174;4.438;2022-10-16T20:48:02;11.13;;;4.23;;
26080;SDS011;13991;51.174;4.438;2022-10-16T20:50:28;12.57;;;4.47;;
26080;SDS011;13991;51.174;4.438;2022-10-16T20:52:55;15.70;;;4.47;;
26080;SDS011;13991;51.174;4.438;2022-10-16T20:55:21;8.87;;;3.90;;
26080;SDS011;13991;51.174;4.438;2022-10-16T20:57:46;13.73;;;4.57;;
26080;SDS011;13991;51.174;4.438;2022-10-16T21:00:12;7.97;;;3.30;;
26080;SDS011;13991;51.174;4.438;2022-10-16T21:02:38;8.70;;;3.73;;
26080;SDS011;13991;51.174;4.438;2022-10-16T21:05:04;14.43;;;3.63;;
26080;SDS011;13991;51.174;4.438;2022-10-16T21:07:30;8.33;;;3.73;;
26080;SDS011;13991;51.174;4.438;2022-10-16T21:09:56;11.90;;;4.10;;
26080;SDS011;13991;51.174;4.438;2022-10-16T21:12:22;9.73;;;3.87;;
26080;SDS011;13991;51.174;4.438;2022-10-16T21:14:49;13.20;;;4.13;;
26080;SDS011;13991;51.174;4.438;2022-10-16T21:17:15;11.03;;;3.97;;
26080;SDS011;13991;51.174;4.438;2022-10-16T21:19:41;10.53;;;3.37;;
26080;SDS011;13991;51.174;4.438;2022-10-16T21:22:07;6.77;;;3.57;;
26080;SDS011;13991;51.174;4.438;2022-10-16T21:24:33;11.67;;;3.93;;
26080;SDS011;13991;51.174;4.438;2022-10-16T21:27:00;12.27;;;4.10;;
26080;SDS011;13991;51.174;4.438;2022-10-16T21:29:26;11.77;;;4.03;;
26080;SDS011;13991;51.174;4.438;2022-10-16T21:31:51;16.20;;;3.60;;
26080;SDS011;13991;51.174;4.438;2022-10-16T21:34:17;9.87;;;4.07;;
26080;SDS011;13991;51.174;4.438;2022-10-16T21:36:43;10.70;;;4.20;;
26080;SDS011;13991;51.174;4.438;2022-10-16T21:39:10;9.97;;;3.90;;
26080;SDS011;13991;51.174;4.438;2022-10-16T21:41:38;11.17;;;3.77;;
26080;SDS011;13991;51.174;4.438;2022-10-16T21:44:04;7.90;;;3.83;;
26080;SDS011;13991;51.174;4.438;2022-10-16T21:46:32;8.90;;;3.97;;
26080;SDS011;13991;51.174;4.438;2022-10-16T21:49:00;8.63;;;3.30;;
26080;SDS011;13991;51.174;4.438;2022-10-16T21:51:29;9.07;;;3.27;;
26080;SDS011;13991;51.174;4.438;2022-10-16T21:54:06;11.47;;;4.13;;
26080;SDS011;13991;51.174;4.438;2022-10-16T21:56:34;8.90;;;3.40;;
26080;SDS011;13991;51.174;4.438;2022-10-16T21:59:00;9.27;;;3.83;;
26080;SDS011;13991;51.174;4.438;2022-10-16T22:01:26;13.77;;;4.20;;
26080;SDS011;13991;51.174;4.438;2022-10-16T22:03:52;10.23;;;3.80;;
26080;SDS011;13991;51.174;4.438;2022-10-16T22:06:19;9.87;;;4.57;;
26080;SDS011;13991;51.174;4.438;2022-10-16T22:08:47;13.83;;;4.20;;
26080;SDS011;13991;51.174;4.438;2022-10-16T22:11:15;7.73;;;3.90;;
26080;SDS011;13991;51.174;4.438;2022-10-16T22:13:43;7.80;;;3.80;;
26080;SDS011;13991;51.174;4.438;2022-10-16T22:16:09;10.40;;;4.03;;
26080;SDS011;13991;51.174;4.438;2022-10-16T22:18:36;8.40;;;3.83;;
26080;SDS011;13991;51.174;4.438;2022-10-16T22:21:06;10.53;;;3.83;;
26080;SDS011;13991;51.174;4.438;2022-10-16T22:23:33;12.23;;;4.23;;
26080;SDS011;13991;51.174;4.438;2022-10-16T22:25:59;11.50;;;4.23;;
26080;SDS011;13991;51.174;4.438;2022-10-16T22:28:26;23.80;;;4.67;;
26080;SDS011;13991;51.174;4.438;2022-10-16T22:30:52;11.27;;;3.50;;
26080;SDS011;13991;51.174;4.438;2022-10-16T22:33:18;12.20;;;4.50;;
26080;SDS011;13991;51.174;4.438;2022-10-16T22:35:44;18.07;;;4.70;;
26080;SDS011;13991;51.174;4.438;2022-10-16T22:38:10;10.50;;;4.30;;
26080;SDS011;13991;51.174;4.438;2022-10-16T22:40:36;10.70;;;4.17;;
26080;SDS011;13991;51.174;4.438;2022-10-16T22:43:03;14.57;;;4.77;;
26080;SDS011;13991;51.174;4.438;2022-10-16T22:45:30;7.23;;;4.50;;
26080;SDS011;13991;51.174;4.438;2022-10-16T22:47:56;14.47;;;4.63;;
26080;SDS011;13991;51.174;4.438;2022-10-16T22:50:22;8.50;;;4.40;;
26080;SDS011;13991;51.174;4.438;2022-10-16T22:52:49;9.53;;;4.23;;
26080;SDS011;13991;51.174;4.438;2022-10-16T22:55:15;12.97;;;4.57;;
26080;SDS011;13991;51.174;4.438;2022-10-16T22:57:41;11.87;;;4.73;;
26080;SDS011;13991;51.174;4.438;2022-10-16T23:00:07;12.73;;;4.63;;
26080;SDS011;13991;51.174;4.438;2022-10-16T23:02:36;13.10;;;4.80;;
26080;SDS011;13991;51.174;4.438;2022-10-16T23:05:02;12.23;;;5.27;;
26080;SDS011;13991;51.174;4.438;2022-10-16T23:07:30;13.77;;;4.97;;
26080;SDS011;13991;51.174;4.438;2022-10-16T23:09:56;7.87;;;4.30;;
26080;SDS011;13991;51.174;4.438;2022-10-16T23:12:21;12.20;;;5.00;;
26080;SDS011;13991;51.174;4.438;2022-10-16T23:14:50;10.23;;;5.13;;
26080;SDS011;13991;51.174;4.438;2022-10-16T23:17:16;14.47;;;5.37;;
26080;SDS011;13991;51.174;4.438;2022-10-16T23:19:42;15.97;;;6.03;;
26080;SDS011;13991;51.174;4.438;2022-10-16T23:22:08;8.37;;;5.23;;
26080;SDS011;13991;51.174;4.438;2022-10-16T23:24:34;13.00;;;5.90;;
26080;SDS011;13991;51.174;4.438;2022-10-16T23:26:59;10.17;;;5.20;;
26080;SDS011;13991;51.174;4.438;2022-10-16T23:29:25;10.37;;;5.67;;
26080;SDS011;13991;51.174;4.438;2022-10-16T23:31:52;10.67;;;5.20;;
26080;SDS011;13991;51.174;4.438;2022-10-16T23:34:19;7.77;;;4.80;;
26080;SDS011;13991;51.174;4.438;2022-10-16T23:36:44;10.43;;;5.10;;
26080;SDS011;13991;51.174;4.438;2022-10-16T23:39:10;10.20;;;5.20;;
26080;SDS011;13991;51.174;4.438;2022-10-16T23:41:36;17.07;;;5.57;;
26080;SDS011;13991;51.174;4.438;2022-10-16T23:44:01;13.03;;;6.13;;
26080;SDS011;13991;51.174;4.438;2022-10-16T23:46:27;8.17;;;5.00;;
26080;SDS011;13991;51.174;4.438;2022-10-16T23:48:53;11.67;;;5.40;;
26080;SDS011;13991;51.174;4.438;2022-10-16T23:51:18;22.57;;;6.20;;
26080;SDS011;13991;51.174;4.438;2022-10-16T23:53:44;10.50;;;5.67;;
26080;SDS011;13991;51.174;4.438;2022-10-16T23:56:10;8.83;;;5.13;;
26080;SDS011;13991;51.174;4.438;2022-10-16T23:58:36;9.10;;;5.90;;
